sensor_id;sensor_type;location;lat;lon;timestamp;pressure;altitude;pressure_sealevel;temperature;humidity
74708;BME280;63360;50.104;8.074;2022-10-31T00:00:28;97675.09;;;10.27;100.00
74708;BME280;63360;50.104;8.074;2022-10-31T00:02:55;97665.16;;;10.15;100.00
74708;BME280;63360;50.104;8.074;2022-10-31T00:05:22;97672.28;;;10.23;100.00
74708;BME280;63360;50.104;8.074;2022-10-31T00:07:52;97678.75;;;10.26;100.00
74708;BME280;63360;50.104;8.074;2022-10-31T00:10:18;97672.66;;;10.30;100.00
74708;BME280;63360;50.104;8.074;2022-10-31T00:12:44;97676.03;;;10.31;100.00
74708;BME280;63360;50.104;8.074;2022-10-31T00:15:11;97678.53;;;10.36;100.00
74708;BME280;63360;50.104;8.074;2022-10-31T00:17:37;97677.75;;;10.35;100.00
74708;BME280;63360;50.104;8.074;2022-10-31T00:20:04;97683.84;;;10.45;100.00
74708;BME280;63360;50.104;8.074;2022-10-31T00:22:30;97691.53;;;10.50;100.00
74708;BME280;63360;50.104;8.074;2022-10-31T00:24:57;97691.53;;;10.50;100.00
74708;BME280;63360;50.104;8.074;2022-10-31T00:27:23;97690.66;;;10.54;100.00
74708;BME280;63360;50.104;8.074;2022-10-31T00:29:49;97677.94;;;10.53;100.00
74708;BME280;63360;50.104;8.074;2022-10-31T00:32:16;97672.75;;;10.53;100.00
74708;BME280;63360;50.104;8.074;2022-10-31T00:34:42;97678.06;;;10.48;100.00
74708;BME280;63360;50.104;8.074;2022-10-31T00:37:08;97693.56;;;10.53;100.00
74708;BME280;63360;50.104;8.074;2022-10-31T00:39:35;97680.47;;;10.44;100.00
74708;BME280;63360;50.104;8.074;2022-10-31T00:42:01;97682.00;;;10.45;100.00
74708;BME280;63360;50.104;8.074;2022-10-31T00:44:28;97684.97;;;10.52;100.00
74708;BME280;63360;50.104;8.074;2022-10-31T00:46:54;97684.78;;;10.49;100.00
74708;BME280;63360;50.104;8.074;2022-10-31T00:49:20;97685.66;;;10.44;100.00
74708;BME280;63360;50.104;8.074;2022-10-31T00:51:47;97684.59;;;10.45;100.00
74708;BME280;63360;50.104;8.074;2022-10-31T00:54:13;97693.16;;;10.59;100.00
74708;BME280;63360;50.104;8.074;2022-10-31T00:56:39;97696.41;;;10.78;100.00
74708;BME280;63360;50.104;8.074;2022-10-31T00:59:06;97679.44;;;10.67;100.00
74708;BME280;63360;50.104;8.074;2022-10-31T01:01:32;97684.97;;;10.66;100.00
74708;BME280;63360;50.104;8.074;2022-10-31T01:03:59;97685.25;;;10.64;100.00
74708;BME280;63360;50.104;8.074;2022-10-31T01:06:25;97691.81;;;10.62;100.00
74708;BME280;63360;50.104;8.074;2022-10-31T01:08:51;97675.81;;;10.55;100.00
74708;BME280;63360;50.104;8.074;2022-10-31T01:11:20;97665.72;;;10.53;100.00
74708;BME280;63360;50.104;8.074;2022-10-31T01:13:50;97682.13;;;10.76;100.00
74708;BME280;63360;50.104;8.074;2022-10-31T01:16:20;97678.34;;;10.95;100.00
74708;BME280;63360;50.104;8.074;2022-10-31T01:18:47;97666.38;;;10.94;100.00
74708;BME280;63360;50.104;8.074;2022-10-31T01:21:17;97663.69;;;10.86;100.00
74708;BME280;63360;50.104;8.074;2022-10-31T01:23:44;97651.69;;;10.76;100.00
74708;BME280;63360;50.104;8.074;2022-10-31T01:26:16;97669.44;;;10.74;100.00
74708;BME280;63360;50.104;8.074;2022-10-31T01:28:52;97671.84;;;10.71;100.00
74708;BME280;63360;50.104;8.074;2022-10-31T01:31:21;97664.69;;;10.76;100.00
74708;BME280;63360;50.104;8.074;2022-10-31T01:33:48;97671.94;;;10.79;100.00
74708;BME280;63360;50.104;8.074;2022-10-31T01:38:46;97671.81;;;10.84;100.00
74708;BME280;63360;50.104;8.074;2022-10-31T01:41:16;97661.16;;;10.72;100.00
74708;BME280;63360;50.104;8.074;2022-10-31T01:43:44;97670.69;;;10.77;100.00
74708;BME280;63360;50.104;8.074;2022-10-31T01:46:10;97664.63;;;10.68;100.00
74708;BME280;63360;50.104;8.074;2022-10-31T01:48:38;97662.44;;;10.61;100.00
74708;BME280;63360;50.104;8.074;2022-10-31T01:51:10;97671.28;;;10.60;100.00
74708;BME280;63360;50.104;8.074;2022-10-31T01:53:39;97670.72;;;10.63;100.00
74708;BME280;63360;50.104;8.074;2022-10-31T01:56:07;97655.59;;;10.52;100.00
74708;BME280;63360;50.104;8.074;2022-10-31T01:58:34;97663.84;;;10.67;100.00
74708;BME280;63360;50.104;8.074;2022-10-31T02:01:01;97663.94;;;10.62;100.00
74708;BME280;63360;50.104;8.074;2022-10-31T02:03:33;97662.69;;;10.73;100.00
74708;BME280;63360;50.104;8.074;2022-10-31T02:06:00;97651.13;;;10.66;100.00
74708;BME280;63360;50.104;8.074;2022-10-31T02:08:28;97657.66;;;10.77;100.00
74708;BME280;63360;50.104;8.074;2022-10-31T02:11:00;97670.16;;;10.88;100.00
74708;BME280;63360;50.104;8.074;2022-10-31T02:13:28;97670.41;;;11.01;100.00
74708;BME280;63360;50.104;8.074;2022-10-31T02:15:57;97655.31;;;10.89;100.00
74708;BME280;63360;50.104;8.074;2022-10-31T02:18:27;97659.38;;;10.81;100.00
74708;BME280;63360;50.104;8.074;2022-10-31T02:26:35;97644.81;;;10.45;100.00
74708;BME280;63360;50.104;8.074;2022-10-31T02:32:38;97644.22;;;10.61;100.00
74708;BME280;63360;50.104;8.074;2022-10-31T02:35:11;97653.06;;;10.60;100.00
74708;BME280;63360;50.104;8.074;2022-10-31T02:40:33;97646.81;;;10.61;100.00
74708;BME280;63360;50.104;8.074;2022-10-31T02:43:15;97651.63;;;10.54;100.00
74708;BME280;63360;50.104;8.074;2022-10-31T02:46:03;97646.63;;;10.58;100.00
74708;BME280;63360;50.104;8.074;2022-10-31T02:48:35;97642.13;;;10.50;100.00
74708;BME280;63360;50.104;8.074;2022-10-31T02:51:04;97635.28;;;10.54;100.00
74708;BME280;63360;50.104;8.074;2022-10-31T02:53:33;97638.06;;;10.57;100.00
74708;BME280;63360;50.104;8.074;2022-10-31T02:56:15;97633.81;;;10.61;100.00
74708;BME280;63360;50.104;8.074;2022-10-31T02:59:02;97646.63;;;10.58;100.00
74708;BME280;63360;50.104;8.074;2022-10-31T03:04:16;97650.13;;;10.75;100.00
74708;BME280;63360;50.104;8.074;2022-10-31T03:09:31;97650.13;;;10.53;100.00
74708;BME280;63360;50.104;8.074;2022-10-31T03:15:06;97643.09;;;10.54;100.00
74708;BME280;63360;50.104;8.074;2022-10-31T03:17:45;97642.31;;;10.40;100.00
74708;BME280;63360;50.104;8.074;2022-10-31T03:20:20;97635.44;;;10.57;100.00
74708;BME280;63360;50.104;8.074;2022-10-31T03:22:49;97629.31;;;10.53;100.00
74708;BME280;63360;50.104;8.074;2022-10-31T03:25:16;97637.03;;;10.45;100.00
74708;BME280;63360;50.104;8.074;2022-10-31T03:27:44;97628.19;;;10.32;100.00
74708;BME280;63360;50.104;8.074;2022-10-31T03:30:12;97637.03;;;10.31;100.00
74708;BME280;63360;50.104;8.074;2022-10-31T03:32:44;97630.47;;;10.33;100.00
74708;BME280;63360;50.104;8.074;2022-10-31T03:35:15;97640.66;;;10.44;100.00
74708;BME280;63360;50.104;8.074;2022-10-31T03:37:44;97634.44;;;10.31;100.00
74708;BME280;63360;50.104;8.074;2022-10-31T03:40:12;97625.59;;;10.18;100.00
74708;BME280;63360;50.104;8.074;2022-10-31T03:42:43;97631.28;;;10.20;100.00
74708;BME280;63360;50.104;8.074;2022-10-31T03:45:15;97634.34;;;10.22;100.00
74708;BME280;63360;50.104;8.074;2022-10-31T03:47:44;97629.06;;;10.14;100.00
74708;BME280;63360;50.104;8.074;2022-10-31T03:50:13;97625.13;;;10.16;100.00
74708;BME280;63360;50.104;8.074;2022-10-31T03:52:48;97629.72;;;10.19;100.00
74708;BME280;63360;50.104;8.074;2022-10-31T03:55:24;97625.41;;;10.15;100.00
74708;BME280;63360;50.104;8.074;2022-10-31T03:58:00;97616.91;;;10.09;100.00
74708;BME280;63360;50.104;8.074;2022-10-31T04:00:30;97616.53;;;10.02;100.00
74708;BME280;63360;50.104;8.074;2022-10-31T04:03:03;97628.94;;;10.05;100.00
74708;BME280;63360;50.104;8.074;2022-10-31T04:05:33;97635.28;;;9.99;100.00
74708;BME280;63360;50.104;8.074;2022-10-31T04:08:01;97631.53;;;10.05;100.00
74708;BME280;63360;50.104;8.074;2022-10-31T04:10:31;97636.91;;;10.09;100.00
74708;BME280;63360;50.104;8.074;2022-10-31T04:13:09;97631.72;;;10.09;100.00
74708;BME280;63360;50.104;8.074;2022-10-31T04:15:38;97638.09;;;10.03;100.00
74708;BME280;63360;50.104;8.074;2022-10-31T04:18:05;97637.59;;;10.01;100.00
74708;BME280;63360;50.104;8.074;2022-10-31T04:20:36;97630.56;;;10.01;100.00
74708;BME280;63360;50.104;8.074;2022-10-31T04:23:03;97627.88;;;10.06;100.00
74708;BME280;63360;50.104;8.074;2022-10-31T04:25:31;97629.06;;;10.00;100.00
74708;BME280;63360;50.104;8.074;2022-10-31T04:27:58;97635.78;;;10.01;100.00
74708;BME280;63360;50.104;8.074;2022-10-31T04:30:25;97633.06;;;10.06;100.00
74708;BME280;63360;50.104;8.074;2022-10-31T04:32:51;97626.81;;;9.94;100.00
74708;BME280;63360;50.104;8.074;2022-10-31T04:35:17;97635.28;;;9.86;100.00
74708;BME280;63360;50.104;8.074;2022-10-31T04:37:44;97629.41;;;9.94;100.00
74708;BME280;63360;50.104;8.074;2022-10-31T04:40:10;97629.03;;;9.87;100.00
74708;BME280;63360;50.104;8.074;2022-10-31T04:42:37;97628.06;;;9.96;100.00
74708;BME280;63360;50.104;8.074;2022-10-31T04:45:04;97631.81;;;9.90;100.00
74708;BME280;63360;50.104;8.074;2022-10-31T04:47:32;97621.25;;;9.87;100.00
74708;BME280;63360;50.104;8.074;2022-10-31T04:49:59;97623.66;;;9.83;100.00
74708;BME280;63360;50.104;8.074;2022-10-31T04:52:26;97629.72;;;9.92;100.00
74708;BME280;63360;50.104;8.074;2022-10-31T04:54:52;97633.75;;;9.98;100.00
74708;BME280;63360;50.104;8.074;2022-10-31T04:57:18;97623.25;;;10.03;100.00
74708;BME280;63360;50.104;8.074;2022-10-31T04:59:45;97627.28;;;10.09;100.00
74708;BME280;63360;50.104;8.074;2022-10-31T05:02:11;97633.06;;;10.06;100.00
74708;BME280;63360;50.104;8.074;2022-10-31T05:04:38;97625.56;;;10.05;100.00
74708;BME280;63360;50.104;8.074;2022-10-31T05:07:04;97621.16;;;10.05;100.00
74708;BME280;63360;50.104;8.074;2022-10-31T05:09:31;97623.25;;;10.03;100.00
74708;BME280;63360;50.104;8.074;2022-10-31T05:11:57;97607.97;;;9.88;100.00
74708;BME280;63360;50.104;8.074;2022-10-31T05:14:24;97613.06;;;9.93;100.00
74708;BME280;63360;50.104;8.074;2022-10-31T05:16:50;97610.34;;;9.85;100.00
74708;BME280;63360;50.104;8.074;2022-10-31T05:19:16;97605.84;;;9.77;100.00
74708;BME280;63360;50.104;8.074;2022-10-31T05:21:43;97603.06;;;9.87;100.00
74708;BME280;63360;50.104;8.074;2022-10-31T05:24:09;97603.06;;;9.87;100.00
74708;BME280;63360;50.104;8.074;2022-10-31T05:26:36;97613.06;;;9.93;100.00
74708;BME280;63360;50.104;8.074;2022-10-31T05:29:02;97607.47;;;9.86;100.00
74708;BME280;63360;50.104;8.074;2022-10-31T05:31:29;97602.75;;;9.88;100.00
74708;BME280;63360;50.104;8.074;2022-10-31T05:33:55;97612.78;;;9.95;100.00
74708;BME280;63360;50.104;8.074;2022-10-31T05:36:21;97614.41;;;9.91;100.00
74708;BME280;63360;50.104;8.074;2022-10-31T05:38:48;97608.06;;;9.83;100.00
74708;BME280;63360;50.104;8.074;2022-10-31T05:41:14;97612.78;;;9.81;100.00
74708;BME280;63360;50.104;8.074;2022-10-31T05:43:40;97597.56;;;9.74;100.00
74708;BME280;63360;50.104;8.074;2022-10-31T05:46:07;97611.06;;;9.77;100.00
74708;BME280;63360;50.104;8.074;2022-10-31T05:48:33;97619.41;;;9.73;100.00
74708;BME280;63360;50.104;8.074;2022-10-31T05:50:59;97616.72;;;9.79;100.00
74708;BME280;63360;50.104;8.074;2022-10-31T05:53:26;97599.97;;;9.85;100.00
74708;BME280;63360;50.104;8.074;2022-10-31T05:55:52;97608.44;;;9.90;100.00
74708;BME280;63360;50.104;8.074;2022-10-31T05:58:18;97592.19;;;9.71;100.00
74708;BME280;63360;50.104;8.074;2022-10-31T06:00:45;97591.69;;;9.69;100.00
74708;BME280;63360;50.104;8.074;2022-10-31T06:03:11;97598.63;;;9.73;100.00
74708;BME280;63360;50.104;8.074;2022-10-31T06:05:38;97609.31;;;9.86;100.00
74708;BME280;63360;50.104;8.074;2022-10-31T06:08:04;97608.06;;;9.83;100.00
74708;BME280;63360;50.104;8.074;2022-10-31T06:10:31;97604.88;;;9.86;100.00
74708;BME280;63360;50.104;8.074;2022-10-31T06:12:57;97604.00;;;9.77;100.00
74708;BME280;63360;50.104;8.074;2022-10-31T06:15:24;97606.44;;;9.73;100.00
74708;BME280;63360;50.104;8.074;2022-10-31T06:18:05;97602.69;;;9.66;100.00
74708;BME280;63360;50.104;8.074;2022-10-31T06:20:32;97604.50;;;9.65;100.00
74708;BME280;63360;50.104;8.074;2022-10-31T06:22:59;97607.94;;;9.61;100.00
74708;BME280;63360;50.104;8.074;2022-10-31T06:25:26;97607.47;;;9.59;100.00
74708;BME280;63360;50.104;8.074;2022-10-31T06:27:53;97599.56;;;9.64;100.00
74708;BME280;63360;50.104;8.074;2022-10-31T06:30:20;97601.03;;;9.70;100.00
74708;BME280;63360;50.104;8.074;2022-10-31T06:32:46;97597.19;;;9.67;100.00
74708;BME280;63360;50.104;8.074;2022-10-31T06:35:13;97594.94;;;9.61;100.00
74708;BME280;63360;50.104;8.074;2022-10-31T06:37:39;97604.41;;;9.70;100.00
74708;BME280;63360;50.104;8.074;2022-10-31T06:40:06;97594.00;;;9.70;100.00
74708;BME280;63360;50.104;8.074;2022-10-31T06:42:33;97600.38;;;9.92;100.00
74708;BME280;63360;50.104;8.074;2022-10-31T06:44:59;97592.16;;;9.98;100.00
74708;BME280;63360;50.104;8.074;2022-10-31T06:47:25;97603.53;;;10.02;100.00
74708;BME280;63360;50.104;8.074;2022-10-31T06:49:52;97592.94;;;9.99;100.00
74708;BME280;63360;50.104;8.074;2022-10-31T06:52:18;97602.88;;;10.24;100.00
74708;BME280;63360;50.104;8.074;2022-10-31T06:54:44;97591.91;;;10.27;100.00
74708;BME280;63360;50.104;8.074;2022-10-31T06:57:11;97600.41;;;10.41;100.00
74708;BME280;63360;50.104;8.074;2022-10-31T06:59:37;97594.75;;;10.39;100.00
74708;BME280;63360;50.104;8.074;2022-10-31T07:02:04;97597.00;;;10.54;100.00
74708;BME280;63360;50.104;8.074;2022-10-31T07:04:31;97601.81;;;10.61;100.00
74708;BME280;63360;50.104;8.074;2022-10-31T07:06:57;97602.75;;;10.65;100.00
74708;BME280;63360;50.104;8.074;2022-10-31T07:09:24;97607.00;;;10.74;100.00
74708;BME280;63360;50.104;8.074;2022-10-31T07:11:52;97603.97;;;10.81;100.00
74708;BME280;63360;50.104;8.074;2022-10-31T07:14:18;97591.88;;;10.99;100.00
74708;BME280;63360;50.104;8.074;2022-10-31T07:16:48;97597.81;;;11.21;100.00
74708;BME280;63360;50.104;8.074;2022-10-31T07:19:16;97608.09;;;11.26;100.00
74708;BME280;63360;50.104;8.074;2022-10-31T07:21:43;97604.91;;;11.29;100.00
74708;BME280;63360;50.104;8.074;2022-10-31T07:24:09;97606.84;;;11.46;100.00
74708;BME280;63360;50.104;8.074;2022-10-31T07:26:36;97597.78;;;11.43;100.00
74708;BME280;63360;50.104;8.074;2022-10-31T07:29:02;97614.63;;;11.68;100.00
74708;BME280;63360;50.104;8.074;2022-10-31T07:31:28;97607.44;;;11.74;100.00
74708;BME280;63360;50.104;8.074;2022-10-31T07:33:55;97608.25;;;11.83;100.00
74708;BME280;63360;50.104;8.074;2022-10-31T07:36:21;97620.72;;;11.94;100.00
74708;BME280;63360;50.104;8.074;2022-10-31T07:38:47;97603.38;;;11.98;100.00
74708;BME280;63360;50.104;8.074;2022-10-31T07:41:14;97601.00;;;12.10;100.00
74708;BME280;63360;50.104;8.074;2022-10-31T07:43:40;97594.69;;;12.11;100.00
74708;BME280;63360;50.104;8.074;2022-10-31T07:46:07;97604.38;;;12.28;100.00
74708;BME280;63360;50.104;8.074;2022-10-31T07:48:33;97610.72;;;12.44;100.00
74708;BME280;63360;50.104;8.074;2022-10-31T07:50:59;97607.34;;;12.52;100.00
74708;BME280;63360;50.104;8.074;2022-10-31T07:53:26;97620.25;;;12.66;100.00
74708;BME280;63360;50.104;8.074;2022-10-31T07:55:52;97605.81;;;12.68;100.00
74708;BME280;63360;50.104;8.074;2022-10-31T07:58:18;97613.19;;;12.84;100.00
74708;BME280;63360;50.104;8.074;2022-10-31T08:00:46;97623.47;;;12.97;100.00
74708;BME280;63360;50.104;8.074;2022-10-31T08:03:15;97616.88;;;13.08;100.00
74708;BME280;63360;50.104;8.074;2022-10-31T08:05:42;97613.16;;;13.18;99.78
74708;BME280;63360;50.104;8.074;2022-10-31T08:08:10;97623.59;;;13.35;99.75
74708;BME280;63360;50.104;8.074;2022-10-31T08:10:37;97615.59;;;13.40;96.91
74708;BME280;63360;50.104;8.074;2022-10-31T08:13:07;97622.91;;;13.55;100.00
74708;BME280;63360;50.104;8.074;2022-10-31T08:15:34;97620.63;;;13.62;100.00
74708;BME280;63360;50.104;8.074;2022-10-31T08:18:05;97624.53;;;13.85;92.47
74708;BME280;63360;50.104;8.074;2022-10-31T08:20:31;97621.91;;;13.85;94.19
74708;BME280;63360;50.104;8.074;2022-10-31T08:23:00;97620.28;;;14.02;92.97
74708;BME280;63360;50.104;8.074;2022-10-31T08:25:28;97622.09;;;14.10;93.14
74708;BME280;63360;50.104;8.074;2022-10-31T08:28:02;97619.25;;;14.23;90.58
74708;BME280;63360;50.104;8.074;2022-10-31T08:30:31;97627.97;;;14.36;85.57
74708;BME280;63360;50.104;8.074;2022-10-31T08:33:05;97619.16;;;14.40;87.09
74708;BME280;63360;50.104;8.074;2022-10-31T08:35:33;97611.72;;;14.51;85.50
74708;BME280;63360;50.104;8.074;2022-10-31T08:37:59;97604.19;;;14.49;85.59
74708;BME280;63360;50.104;8.074;2022-10-31T08:40:28;97599.19;;;14.56;86.07
74708;BME280;63360;50.104;8.074;2022-10-31T08:43:14;97602.84;;;14.64;86.45
74708;BME280;63360;50.104;8.074;2022-10-31T08:45:42;97594.97;;;14.64;84.96
74708;BME280;63360;50.104;8.074;2022-10-31T08:48:12;97598.63;;;14.72;82.88
74708;BME280;63360;50.104;8.074;2022-10-31T08:50:39;97598.75;;;14.75;82.50
74708;BME280;63360;50.104;8.074;2022-10-31T08:53:14;97594.72;;;14.78;81.86
74708;BME280;63360;50.104;8.074;2022-10-31T08:55:42;97592.88;;;14.78;82.72
74708;BME280;63360;50.104;8.074;2022-10-31T08:58:14;97592.81;;;14.87;81.74
74708;BME280;63360;50.104;8.074;2022-10-31T09:00:42;97595.53;;;14.90;81.02
74708;BME280;63360;50.104;8.074;2022-10-31T09:03:12;97598.63;;;14.92;82.59
74708;BME280;63360;50.104;8.074;2022-10-31T09:05:39;97597.66;;;14.97;80.45
74708;BME280;63360;50.104;8.074;2022-10-31T09:08:06;97580.28;;;14.92;80.18
74708;BME280;63360;50.104;8.074;2022-10-31T09:10:41;97582.69;;;14.97;80.54
74708;BME280;63360;50.104;8.074;2022-10-31T09:13:19;97583.56;;;15.01;81.63
74708;BME280;63360;50.104;8.074;2022-10-31T09:15:47;97585.88;;;15.03;82.42
74708;BME280;63360;50.104;8.074;2022-10-31T09:18:16;97591.56;;;15.05;83.11
74708;BME280;63360;50.104;8.074;2022-10-31T09:20:44;97580.44;;;15.08;78.89
74708;BME280;63360;50.104;8.074;2022-10-31T09:23:18;97582.66;;;15.18;79.75
74708;BME280;63360;50.104;8.074;2022-10-31T09:25:46;97588.22;;;15.16;79.20
74708;BME280;63360;50.104;8.074;2022-10-31T09:28:18;97590.50;;;15.18;80.32
74708;BME280;63360;50.104;8.074;2022-10-31T09:30:50;97583.41;;;15.18;80.23
74708;BME280;63360;50.104;8.074;2022-10-31T09:33:17;97578.94;;;15.19;78.81
74708;BME280;63360;50.104;8.074;2022-10-31T09:35:44;97575.00;;;15.25;77.89
74708;BME280;63360;50.104;8.074;2022-10-31T09:38:13;97571.41;;;15.17;77.68
74708;BME280;63360;50.104;8.074;2022-10-31T09:43:57;97584.94;;;15.19;79.21
74708;BME280;63360;50.104;8.074;2022-10-31T09:52:20;97560.81;;;15.14;80.84
74708;BME280;63360;50.104;8.074;2022-10-31T09:54:59;97569.66;;;15.22;79.59
74708;BME280;63360;50.104;8.074;2022-10-31T09:57:33;97571.94;;;15.23;80.53
74708;BME280;63360;50.104;8.074;2022-10-31T10:00:04;97559.63;;;15.24;77.55
74708;BME280;63360;50.104;8.074;2022-10-31T10:02:37;97568.03;;;15.29;80.14
74708;BME280;63360;50.104;8.074;2022-10-31T10:05:10;97554.50;;;15.27;78.15
74708;BME280;63360;50.104;8.074;2022-10-31T10:10:18;97566.28;;;15.33;76.63
74708;BME280;63360;50.104;8.074;2022-10-31T10:13:08;97564.34;;;15.42;75.53
74708;BME280;63360;50.104;8.074;2022-10-31T10:15:51;97556.81;;;15.41;76.68
74708;BME280;63360;50.104;8.074;2022-10-31T10:21:43;97565.81;;;15.52;76.80
74708;BME280;63360;50.104;8.074;2022-10-31T10:24:23;97570.31;;;15.63;76.63
74708;BME280;63360;50.104;8.074;2022-10-31T10:29:34;97571.63;;;15.69;77.58
74708;BME280;63360;50.104;8.074;2022-10-31T10:32:16;97567.16;;;15.70;76.44
74708;BME280;63360;50.104;8.074;2022-10-31T10:34:51;97565.19;;;15.67;75.39
74708;BME280;63360;50.104;8.074;2022-10-31T10:37:32;97562.88;;;15.77;74.77
74708;BME280;63360;50.104;8.074;2022-10-31T10:40:19;97548.22;;;15.76;75.72
74708;BME280;63360;50.104;8.074;2022-10-31T10:45:49;97554.56;;;15.75;75.35
74708;BME280;63360;50.104;8.074;2022-10-31T10:48:52;97552.28;;;15.74;75.99
74708;BME280;63360;50.104;8.074;2022-10-31T10:59:45;97540.47;;;15.80;77.82
74708;BME280;63360;50.104;8.074;2022-10-31T11:02:21;97532.50;;;15.76;74.41
74708;BME280;63360;50.104;8.074;2022-10-31T11:04:54;97526.59;;;15.80;75.54
74708;BME280;63360;50.104;8.074;2022-10-31T11:07:21;97527.44;;;15.84;73.82
74708;BME280;63360;50.104;8.074;2022-10-31T11:09:47;97522.34;;;15.75;75.05
74708;BME280;63360;50.104;8.074;2022-10-31T11:12:21;97529.22;;;15.80;75.13
74708;BME280;63360;50.104;8.074;2022-10-31T11:14:51;97533.81;;;15.83;75.22
74708;BME280;63360;50.104;8.074;2022-10-31T11:17:25;97512.59;;;15.75;73.42
74708;BME280;63360;50.104;8.074;2022-10-31T11:20:04;97502.66;;;15.69;74.43
74708;BME280;63360;50.104;8.074;2022-10-31T11:22:31;97513.13;;;15.81;75.74
74708;BME280;63360;50.104;8.074;2022-10-31T11:24:57;97484.75;;;15.83;74.29
74708;BME280;63360;50.104;8.074;2022-10-31T11:27:25;97495.22;;;15.83;75.25
74708;BME280;63360;50.104;8.074;2022-10-31T11:29:51;97491.50;;;15.84;76.94
74708;BME280;63360;50.104;8.074;2022-10-31T11:32:27;97485.16;;;15.85;75.19
74708;BME280;63360;50.104;8.074;2022-10-31T11:34:55;97492.16;;;15.81;74.01
74708;BME280;63360;50.104;8.074;2022-10-31T11:37:25;97507.22;;;15.84;76.13
74708;BME280;63360;50.104;8.074;2022-10-31T11:39:55;97510.19;;;15.83;73.68
74708;BME280;63360;50.104;8.074;2022-10-31T11:42:25;97507.81;;;15.77;77.82
74708;BME280;63360;50.104;8.074;2022-10-31T11:44:54;97517.19;;;15.78;75.08
74708;BME280;63360;50.104;8.074;2022-10-31T11:47:27;97507.34;;;15.88;76.36
74708;BME280;63360;50.104;8.074;2022-10-31T11:49:55;97492.91;;;15.82;75.39
74708;BME280;63360;50.104;8.074;2022-10-31T11:52:28;97493.34;;;15.84;75.04
74708;BME280;63360;50.104;8.074;2022-10-31T11:55:02;97495.31;;;15.87;76.28
74708;BME280;63360;50.104;8.074;2022-10-31T11:57:48;97476.63;;;15.88;77.22
74708;BME280;63360;50.104;8.074;2022-10-31T12:00:38;97479.13;;;15.97;74.92
74708;BME280;63360;50.104;8.074;2022-10-31T12:08:30;97450.28;;;15.97;75.02
74708;BME280;63360;50.104;8.074;2022-10-31T12:14:00;97451.25;;;16.04;74.60
74708;BME280;63360;50.104;8.074;2022-10-31T12:19:36;97435.50;;;15.92;75.92
74708;BME280;63360;50.104;8.074;2022-10-31T12:22:30;97439.34;;;15.95;75.01
74708;BME280;63360;50.104;8.074;2022-10-31T12:30:49;97421.84;;;15.99;75.87
74708;BME280;63360;50.104;8.074;2022-10-31T12:36:26;97417.66;;;16.10;74.24
74708;BME280;63360;50.104;8.074;2022-10-31T12:44:28;97415.06;;;16.25;76.46
74708;BME280;63360;50.104;8.074;2022-10-31T12:52:37;97401.03;;;16.33;75.24
74708;BME280;63360;50.104;8.074;2022-10-31T12:58:21;97377.66;;;16.28;74.51
74708;BME280;63360;50.104;8.074;2022-10-31T13:00:53;97385.34;;;16.37;74.99
74708;BME280;63360;50.104;8.074;2022-10-31T13:03:38;97373.78;;;16.38;72.30
74708;BME280;63360;50.104;8.074;2022-10-31T13:06:14;97365.66;;;16.43;70.79
74708;BME280;63360;50.104;8.074;2022-10-31T13:08:53;97369.34;;;16.42;69.57
74708;BME280;63360;50.104;8.074;2022-10-31T13:11:24;97354.88;;;16.32;70.46
74708;BME280;63360;50.104;8.074;2022-10-31T13:14:05;97353.44;;;16.35;70.36
74708;BME280;63360;50.104;8.074;2022-10-31T13:16:36;97347.16;;;16.24;72.16
74708;BME280;63360;50.104;8.074;2022-10-31T13:19:10;97349.00;;;16.23;74.48
74708;BME280;63360;50.104;8.074;2022-10-31T13:24:16;97345.44;;;16.16;75.48
74708;BME280;63360;50.104;8.074;2022-10-31T13:26:49;97343.00;;;16.07;76.03
74708;BME280;63360;50.104;8.074;2022-10-31T13:32:00;97340.25;;;16.04;77.12
74708;BME280;63360;50.104;8.074;2022-10-31T13:34:31;97341.69;;;16.01;73.42
74708;BME280;63360;50.104;8.074;2022-10-31T13:37:09;97335.50;;;15.94;74.91
74708;BME280;63360;50.104;8.074;2022-10-31T13:45:19;97325.81;;;15.82;77.89
74708;BME280;63360;50.104;8.074;2022-10-31T13:50:43;97325.47;;;15.84;78.83
74708;BME280;63360;50.104;8.074;2022-10-31T13:53:22;97320.56;;;15.82;78.13
74708;BME280;63360;50.104;8.074;2022-10-31T13:58:35;97317.09;;;15.78;77.21
74708;BME280;63360;50.104;8.074;2022-10-31T14:01:21;97329.53;;;15.81;78.76
74708;BME280;63360;50.104;8.074;2022-10-31T14:06:55;97338.09;;;15.78;79.65
74708;BME280;63360;50.104;8.074;2022-10-31T14:09:27;97336.03;;;15.71;80.63
74708;BME280;63360;50.104;8.074;2022-10-31T14:11:55;97327.97;;;15.64;81.04
74708;BME280;63360;50.104;8.074;2022-10-31T14:14:25;97319.88;;;15.57;81.13
74708;BME280;63360;50.104;8.074;2022-10-31T14:16:56;97332.09;;;15.65;81.17
74708;BME280;63360;50.104;8.074;2022-10-31T14:19:24;97325.00;;;15.66;82.27
74708;BME280;63360;50.104;8.074;2022-10-31T14:21:51;97330.13;;;15.62;82.54
74708;BME280;63360;50.104;8.074;2022-10-31T14:24:38;97329.47;;;15.65;81.00
74708;BME280;63360;50.104;8.074;2022-10-31T14:29:54;97325.88;;;15.70;77.88
74708;BME280;63360;50.104;8.074;2022-10-31T14:32:24;97313.72;;;15.77;76.51
74708;BME280;63360;50.104;8.074;2022-10-31T14:34:56;97308.22;;;15.83;77.68
74708;BME280;63360;50.104;8.074;2022-10-31T14:46:14;97297.06;;;15.86;77.20
74708;BME280;63360;50.104;8.074;2022-10-31T14:51:32;97297.63;;;15.79;77.94
74708;BME280;63360;50.104;8.074;2022-10-31T14:54:01;97291.00;;;15.69;78.04
74708;BME280;63360;50.104;8.074;2022-10-31T14:56:32;97279.34;;;15.67;77.19
74708;BME280;63360;50.104;8.074;2022-10-31T14:59:04;97274.31;;;15.62;77.29
74708;BME280;63360;50.104;8.074;2022-10-31T15:01:34;97284.38;;;15.60;78.46
74708;BME280;63360;50.104;8.074;2022-10-31T15:04:07;97277.41;;;15.52;78.20
74708;BME280;63360;50.104;8.074;2022-10-31T15:06:57;97282.97;;;15.38;80.68
74708;BME280;63360;50.104;8.074;2022-10-31T15:09:32;97285.53;;;15.35;81.09